createdAt,value
2019-01-21T00:00:51.041Z,0.90
2019-01-21T00:03:18.459Z,0.90
2019-01-21T00:05:45.814Z,0.90
2019-01-21T00:08:13.201Z,1.00
2019-01-21T00:10:40.599Z,1.00
2019-01-21T00:13:07.968Z,1.00
2019-01-21T00:15:35.503Z,1.00
2019-01-21T00:18:03.144Z,1.00
2019-01-21T00:20:30.530Z,1.00
2019-01-21T00:23:17.392Z,1.00
2019-01-21T00:25:44.786Z,1.00
2019-01-21T00:28:12.248Z,1.00
2019-01-21T00:30:39.657Z,1.00
2019-01-21T00:33:07.120Z,1.00
2019-01-21T00:35:34.536Z,1.00
2019-01-21T00:38:01.950Z,1.00
2019-01-21T00:40:29.365Z,1.00
2019-01-21T00:42:56.738Z,1.00
2019-01-21T00:45:24.137Z,1.00
2019-01-21T00:47:51.564Z,1.00
2019-01-21T00:50:18.925Z,1.00
2019-01-21T00:52:46.312Z,1.00
2019-01-21T00:55:13.721Z,1.00
2019-01-21T00:57:41.593Z,1.00
2019-01-21T01:00:13.158Z,1.00
2019-01-21T01:02:40.621Z,1.00
2019-01-21T01:05:09.272Z,1.00
2019-01-21T01:07:37.076Z,1.10
2019-01-21T01:10:05.213Z,1.10
2019-01-21T01:12:32.590Z,1.00
2019-01-21T01:15:00.005Z,1.00
2019-01-21T01:17:27.352Z,1.00
2019-01-21T01:19:54.765Z,1.10
2019-01-21T01:22:22.198Z,1.10
2019-01-21T01:24:49.584Z,1.10
2019-01-21T01:27:16.949Z,1.10
2019-01-21T01:29:43.789Z,1.10
2019-01-21T01:32:10.598Z,1.10
2019-01-21T01:34:37.507Z,1.10
2019-01-21T01:37:04.573Z,1.10
2019-01-21T01:39:31.477Z,1.10
2019-01-21T01:41:58.279Z,1.10
2019-01-21T01:44:25.720Z,1.10
2019-01-21T01:46:52.623Z,1.10
2019-01-21T01:49:19.658Z,1.10
2019-01-21T01:51:46.723Z,1.10
2019-01-21T01:54:13.705Z,1.10
2019-01-21T01:56:40.706Z,1.10
2019-01-21T01:59:08.049Z,1.10
2019-01-21T02:01:34.853Z,1.10
2019-01-21T02:04:01.652Z,1.10
2019-01-21T02:06:28.729Z,1.10
2019-01-21T02:08:55.628Z,1.10
2019-01-21T02:11:22.546Z,1.10
2019-01-21T02:13:49.398Z,1.10
2019-01-21T02:16:16.313Z,1.10
2019-01-21T02:18:43.197Z,1.10
2019-01-21T02:21:10.229Z,1.10
2019-01-21T02:23:37.587Z,1.10
2019-01-21T02:26:15.857Z,1.10
2019-01-21T02:28:53.210Z,1.10
2019-01-21T02:32:07.281Z,1.10
2019-01-21T02:35:17.899Z,1.10
2019-01-21T02:38:22.949Z,1.10
2019-01-21T02:40:59.099Z,1.10
2019-01-21T02:43:44.411Z,1.10
2019-01-21T02:46:35.446Z,1.10
2019-01-21T02:50:02.483Z,1.10
2019-01-21T02:53:17.613Z,1.10
2019-01-21T02:56:41.150Z,1.10
2019-01-21T02:59:19.879Z,1.10
2019-01-21T03:02:22.689Z,1.10
2019-01-21T03:05:34.134Z,1.10
2019-01-21T03:08:46.339Z,1.10
2019-01-21T03:11:43.056Z,1.10
2019-01-21T03:14:52.255Z,1.10
2019-01-21T03:18:16.455Z,1.10
2019-01-21T03:21:27.583Z,1.10
2019-01-21T03:24:13.981Z,1.10
2019-01-21T03:27:04.896Z,1.10
2019-01-21T03:30:22.008Z,1.10
2019-01-21T03:33:26.567Z,1.10
2019-01-21T03:36:04.989Z,1.10
2019-01-21T03:39:14.302Z,1.10
2019-01-21T03:41:58.230Z,1.10
2019-01-21T03:45:11.271Z,1.10
2019-01-21T03:47:44.332Z,1.10
2019-01-21T03:50:49.435Z,1.10
2019-01-21T03:53:52.523Z,1.10
2019-01-21T03:56:29.742Z,1.00
2019-01-21T03:59:26.515Z,1.10
2019-01-21T04:02:19.526Z,1.00
2019-01-21T04:05:07.741Z,1.00
2019-01-21T04:07:50.566Z,1.00
2019-01-21T04:10:45.084Z,1.00
2019-01-21T04:13:46.594Z,1.00
2019-01-21T04:16:30.402Z,1.00
2019-01-21T04:19:15.276Z,1.00
2019-01-21T04:22:15.872Z,1.00
2019-01-21T04:25:07.422Z,1.00
2019-01-21T04:27:56.445Z,1.00
2019-01-21T04:31:23.607Z,1.00
2019-01-21T04:34:31.638Z,1.00
2019-01-21T04:37:35.814Z,1.00
2019-01-21T04:40:22.245Z,1.00
2019-01-21T04:43:27.078Z,1.00
2019-01-21T04:46:31.825Z,1.00
2019-01-21T04:49:19.420Z,0.90
2019-01-21T04:52:00.995Z,0.90
2019-01-21T04:55:05.038Z,0.90
2019-01-21T04:58:35.034Z,0.90
2019-01-21T05:01:45.366Z,0.90
2019-01-21T05:04:53.323Z,0.90
2019-01-21T05:07:59.014Z,0.90
2019-01-21T05:11:00.671Z,0.90
2019-01-21T05:14:02.270Z,0.90
2019-01-21T05:16:58.119Z,0.90
2019-01-21T05:19:51.792Z,0.90
2019-01-21T05:22:37.480Z,0.90
2019-01-21T05:25:51.798Z,0.80
2019-01-21T05:28:53.083Z,0.90
2019-01-21T05:32:11.191Z,0.90
2019-01-21T05:35:13.369Z,0.90
2019-01-21T05:38:34.269Z,0.90
2019-01-21T05:41:20.308Z,0.90
2019-01-21T05:44:20.997Z,0.90
2019-01-21T05:47:31.394Z,0.90
2019-01-21T05:50:43.552Z,0.90
2019-01-21T05:53:48.530Z,0.90
2019-01-21T05:56:54.761Z,0.90
2019-01-21T06:00:12.161Z,0.90
2019-01-21T06:03:20.336Z,0.90
2019-01-21T06:06:23.834Z,0.90
2019-01-21T06:09:20.610Z,0.90
2019-01-21T06:12:13.637Z,0.90
2019-01-21T06:15:19.889Z,0.90
2019-01-21T06:17:59.947Z,0.90
2019-01-21T06:21:10.613Z,0.90
2019-01-21T06:24:04.758Z,0.90
2019-01-21T06:27:04.787Z,0.90
2019-01-21T06:30:00.783Z,0.90
2019-01-21T06:33:09.623Z,0.80
2019-01-21T06:36:07.105Z,0.90
2019-01-21T06:39:06.040Z,0.80
2019-01-21T06:41:48.725Z,0.80
2019-01-21T06:45:06.619Z,0.80
2019-01-21T06:48:09.795Z,0.80
2019-01-21T06:51:01.849Z,0.80
2019-01-21T06:53:47.917Z,0.70
2019-01-21T06:56:38.471Z,0.70
2019-01-21T06:59:47.168Z,0.70
2019-01-21T07:02:52.689Z,0.70
2019-01-21T07:05:44.992Z,0.70
2019-01-21T07:08:28.325Z,0.70
2019-01-21T07:12:04.498Z,0.70
2019-01-21T07:15:11.187Z,0.70
2019-01-21T07:18:21.116Z,0.70
2019-01-21T07:21:16.249Z,0.70
2019-01-21T07:24:03.936Z,0.70
2019-01-21T07:27:03.577Z,0.70
2019-01-21T07:30:18.417Z,0.70
2019-01-21T07:33:20.052Z,0.60
2019-01-21T07:36:44.413Z,0.60
2019-01-21T07:39:34.290Z,0.60
2019-01-21T07:42:28.289Z,0.70
2019-01-21T07:45:08.597Z,0.70
2019-01-21T07:48:08.552Z,0.70
2019-01-21T07:51:06.670Z,0.70
2019-01-21T07:54:08.371Z,0.70
2019-01-21T07:57:19.275Z,0.70
2019-01-21T08:00:25.373Z,0.80
2019-01-21T08:03:29.560Z,0.70
2019-01-21T08:06:30.215Z,0.80
2019-01-21T08:09:20.314Z,0.80
2019-01-21T08:12:24.241Z,0.80
2019-01-21T08:15:17.049Z,0.80
2019-01-21T08:18:18.253Z,0.80
2019-01-21T08:21:17.588Z,0.90
2019-01-21T08:24:12.538Z,0.80
2019-01-21T08:27:16.096Z,0.50
2019-01-21T08:30:25.105Z,0.40
2019-01-21T08:33:17.394Z,0.40
2019-01-21T08:36:20.630Z,0.30
2019-01-21T08:39:19.956Z,0.30
2019-01-21T08:42:03.973Z,0.20
2019-01-21T08:44:58.851Z,0.20
2019-01-21T08:48:03.247Z,0.20
2019-01-21T08:51:07.816Z,0.20
2019-01-21T08:53:59.594Z,0.20
2019-01-21T08:56:56.976Z,0.30
2019-01-21T09:00:07.965Z,0.30
2019-01-21T09:03:14.516Z,0.30
2019-01-21T09:06:12.709Z,0.30
2019-01-21T09:09:07.307Z,0.30
2019-01-21T09:12:16.507Z,0.20
2019-01-21T09:15:04.973Z,0.20
2019-01-21T09:18:26.030Z,0.20
2019-01-21T09:21:37.285Z,0.20
2019-01-21T09:24:36.653Z,0.20
2019-01-21T09:27:38.974Z,0.10
2019-01-21T09:30:30.227Z,0.10
2019-01-21T09:33:25.690Z,0.20
2019-01-21T09:36:34.606Z,0.10
2019-01-21T09:39:42.674Z,0.00
2019-01-21T09:42:31.996Z,0.00
2019-01-21T09:45:08.004Z,-0.10
2019-01-21T09:47:34.090Z,-0.10
2019-01-21T09:50:01.517Z,-0.10
2019-01-21T09:52:28.884Z,-0.10
2019-01-21T09:54:57.090Z,-0.10
2019-01-21T09:57:27.147Z,-0.10
2019-01-21T09:59:57.484Z,-0.10
2019-01-21T10:02:47.463Z,-0.10
2019-01-21T10:05:16.054Z,-0.10
2019-01-21T10:08:04.763Z,-0.10
2019-01-21T10:11:09.751Z,-0.10
2019-01-21T10:14:14.691Z,-0.10
2019-01-21T10:17:35.854Z,-0.10
2019-01-21T10:20:46.327Z,-0.20
2019-01-21T10:23:46.441Z,-0.20
2019-01-21T10:27:04.147Z,-0.20
2019-01-21T10:30:03.367Z,-0.20
2019-01-21T10:33:02.649Z,-0.10
2019-01-21T10:36:09.074Z,-0.10
2019-01-21T10:39:04.103Z,-0.10
2019-01-21T10:42:14.649Z,-0.10
2019-01-21T10:45:15.535Z,-0.10
2019-01-21T10:48:06.987Z,-0.10
2019-01-21T10:51:12.995Z,-0.10
2019-01-21T10:54:02.281Z,-0.10
2019-01-21T10:57:06.160Z,0.00
2019-01-21T11:00:09.842Z,0.10
2019-01-21T11:02:49.570Z,0.10
2019-01-21T11:05:58.517Z,0.10
2019-01-21T11:08:47.122Z,0.10
2019-01-21T11:11:36.733Z,0.20
2019-01-21T11:14:34.656Z,0.20
2019-01-21T11:17:26.734Z,0.20
2019-01-21T11:20:23.884Z,0.30
2019-01-21T11:23:02.781Z,0.30
2019-01-21T11:26:05.850Z,0.40
2019-01-21T11:29:12.051Z,0.40
2019-01-21T11:32:25.378Z,0.50
2019-01-21T11:35:12.821Z,0.50
2019-01-21T11:38:16.155Z,0.60
2019-01-21T11:41:19.518Z,0.60
2019-01-21T11:44:26.308Z,0.60
2019-01-21T11:47:38.647Z,0.60
2019-01-21T11:50:19.879Z,0.60
2019-01-21T11:53:18.512Z,0.60
2019-01-21T11:56:38.573Z,0.70
2019-01-21T11:59:44.798Z,0.70
2019-01-21T12:02:47.542Z,0.80
2019-01-21T12:05:29.786Z,1.00
2019-01-21T12:08:33.527Z,1.00
2019-01-21T12:11:34.785Z,1.00
2019-01-21T12:15:01.920Z,0.90
2019-01-21T12:18:04.228Z,1.00
2019-01-21T12:21:09.677Z,1.00
2019-01-21T12:23:45.550Z,1.00
2019-01-21T12:26:52.995Z,1.00
2019-01-21T12:29:45.044Z,1.00
2019-01-21T12:32:56.882Z,1.00
2019-01-21T12:35:34.412Z,1.00
2019-01-21T12:38:38.725Z,0.90
2019-01-21T12:41:36.283Z,0.90
2019-01-21T12:44:16.786Z,0.90
2019-01-21T12:46:48.783Z,0.90
2019-01-21T12:49:39.641Z,0.90
2019-01-21T12:52:30.698Z,0.90
2019-01-21T12:55:38.929Z,0.90
2019-01-21T12:58:25.281Z,1.00
2019-01-21T13:01:30.038Z,1.00
2019-01-21T13:04:54.169Z,1.10
2019-01-21T13:07:40.905Z,1.10
2019-01-21T13:10:45.260Z,1.20
2019-01-21T13:13:51.778Z,1.20
2019-01-21T13:16:59.590Z,1.30
2019-01-21T13:20:17.682Z,1.30
2019-01-21T13:23:25.866Z,1.20
2019-01-21T13:26:23.009Z,1.10
2019-01-21T13:29:10.877Z,1.10
2019-01-21T13:32:47.234Z,1.10
2019-01-21T13:35:48.599Z,1.00
2019-01-21T13:39:09.456Z,1.00
2019-01-21T13:42:19.678Z,1.00
2019-01-21T13:45:30.791Z,1.00
2019-01-21T13:48:49.202Z,0.90
2019-01-21T13:51:49.810Z,0.90
2019-01-21T13:55:14.159Z,0.90
2019-01-21T13:58:08.138Z,0.90
2019-01-21T14:00:59.409Z,0.90
2019-01-21T14:03:41.677Z,1.00
2019-01-21T14:06:35.378Z,1.00
2019-01-21T14:09:40.372Z,1.00
2019-01-21T14:12:55.021Z,1.00
2019-01-21T14:16:11.889Z,1.00
2019-01-21T14:19:19.361Z,1.00
2019-01-21T14:22:23.060Z,1.00
2019-01-21T14:25:14.298Z,1.00
2019-01-21T14:28:22.046Z,1.00
2019-01-21T14:31:36.391Z,1.00
2019-01-21T14:34:15.081Z,0.90
2019-01-21T14:37:05.918Z,0.90
2019-01-21T14:40:20.774Z,0.90
2019-01-21T14:43:32.523Z,0.90
2019-01-21T14:46:19.605Z,0.80
2019-01-21T14:49:31.618Z,0.80
2019-01-21T14:52:16.733Z,0.80
2019-01-21T14:55:20.579Z,0.80
2019-01-21T14:58:15.854Z,0.80
2019-01-21T15:00:54.715Z,0.70
2019-01-21T15:04:09.891Z,0.80
2019-01-21T15:07:17.785Z,0.70
2019-01-21T15:10:09.200Z,0.70
2019-01-21T15:13:20.297Z,0.70
2019-01-21T15:16:20.567Z,0.70
2019-01-21T15:19:02.680Z,0.70
2019-01-21T15:22:06.611Z,0.70
2019-01-21T15:24:57.146Z,0.80
2019-01-21T15:27:51.318Z,0.70
2019-01-21T15:31:08.466Z,0.70
2019-01-21T15:34:07.417Z,0.70
2019-01-21T15:37:08.563Z,0.80
2019-01-21T15:39:50.686Z,0.80
2019-01-21T15:42:51.706Z,0.80
2019-01-21T15:45:50.764Z,0.80
2019-01-21T15:48:48.950Z,0.80
2019-01-21T15:51:48.871Z,0.80
2019-01-21T15:54:39.381Z,0.80
2019-01-21T15:57:28.868Z,0.80
2019-01-21T16:00:26.660Z,0.70
2019-01-21T16:03:34.409Z,0.80
2019-01-21T16:06:35.223Z,0.70
2019-01-21T16:09:22.938Z,0.70
2019-01-21T16:12:33.631Z,0.70
2019-01-21T16:15:15.069Z,0.80
2019-01-21T16:18:06.110Z,0.80
2019-01-21T16:21:04.826Z,0.70
2019-01-21T16:23:49.769Z,0.70
2019-01-21T16:26:27.724Z,0.70
2019-01-21T16:29:17.222Z,0.70
2019-01-21T16:31:50.066Z,0.80
2019-01-21T16:34:42.101Z,0.80
2019-01-21T16:37:49.786Z,0.80
2019-01-21T16:40:57.179Z,0.80
2019-01-21T16:43:30.203Z,0.80
2019-01-21T16:45:57.230Z,0.80
2019-01-21T16:48:24.186Z,0.90
2019-01-21T16:50:51.974Z,0.80
2019-01-21T16:53:19.447Z,0.90
2019-01-21T16:55:46.594Z,0.90
2019-01-21T16:58:13.435Z,0.90
2019-01-21T17:00:40.333Z,0.90
2019-01-21T17:03:07.271Z,0.90
2019-01-21T17:05:34.180Z,0.90
2019-01-21T17:08:01.220Z,0.90
2019-01-21T17:10:28.253Z,0.90
2019-01-21T17:12:55.256Z,0.90
2019-01-21T17:15:22.096Z,0.90
2019-01-21T17:17:49.038Z,0.90
2019-01-21T17:20:18.081Z,0.80
2019-01-21T17:22:45.880Z,0.80
2019-01-21T17:25:13.018Z,0.90
2019-01-21T17:27:40.030Z,0.90
2019-01-21T17:30:09.149Z,0.90
2019-01-21T17:32:35.974Z,0.90
2019-01-21T17:35:03.521Z,0.90
2019-01-21T17:37:30.354Z,0.90
2019-01-21T17:39:57.302Z,0.90
2019-01-21T17:42:24.098Z,0.90
2019-01-21T17:44:51.010Z,0.90
2019-01-21T17:47:18.149Z,0.90
2019-01-21T17:49:44.937Z,0.90
2019-01-21T17:52:12.137Z,0.90
2019-01-21T17:54:38.985Z,0.90
2019-01-21T17:57:05.903Z,0.90
2019-01-21T17:59:32.728Z,0.90
2019-01-21T18:01:59.735Z,0.90
2019-01-21T18:04:26.629Z,0.90
2019-01-21T18:06:53.530Z,0.90
2019-01-21T18:09:40.078Z,0.90
2019-01-21T18:12:06.902Z,0.80
2019-01-21T18:14:34.159Z,0.80
2019-01-21T18:17:01.102Z,0.80
2019-01-21T18:19:29.395Z,0.80
2019-01-21T18:21:56.309Z,0.70
2019-01-21T18:24:23.147Z,0.70
2019-01-21T18:26:50.278Z,0.70
2019-01-21T18:29:17.170Z,0.70
2019-01-21T18:31:44.131Z,0.70
2019-01-21T18:34:11.006Z,0.70
2019-01-21T18:36:38.015Z,0.70
2019-01-21T18:39:10.142Z,0.70
2019-01-21T18:41:37.074Z,0.70
2019-01-21T18:44:04.109Z,0.70
2019-01-21T18:46:30.932Z,0.70
2019-01-21T18:48:57.838Z,0.70
2019-01-21T18:51:24.767Z,0.70
2019-01-21T18:53:51.832Z,0.80
2019-01-21T18:56:18.807Z,0.80
2019-01-21T18:58:45.609Z,0.80
2019-01-21T19:01:12.562Z,0.80
2019-01-21T19:03:39.482Z,0.80
2019-01-21T19:06:06.600Z,0.70
2019-01-21T19:08:33.430Z,0.70
2019-01-21T19:11:00.222Z,0.70
2019-01-21T19:13:27.032Z,0.80
2019-01-21T19:15:53.974Z,0.80
2019-01-21T19:18:20.781Z,0.80
2019-01-21T19:20:47.591Z,0.80
2019-01-21T19:23:14.470Z,0.70
2019-01-21T19:25:41.461Z,0.70
2019-01-21T19:28:08.368Z,0.80
2019-01-21T19:30:35.398Z,0.80
2019-01-21T19:33:02.197Z,0.70
2019-01-21T19:35:34.494Z,0.80
2019-01-21T19:38:01.552Z,0.70
2019-01-21T19:40:28.677Z,0.70
2019-01-21T19:43:08.679Z,0.70
2019-01-21T19:45:35.486Z,0.70
2019-01-21T19:48:02.481Z,0.70
2019-01-21T19:50:29.404Z,0.70
2019-01-21T19:52:56.341Z,0.70
2019-01-21T19:55:29.549Z,0.70
2019-01-21T19:57:56.531Z,0.70
2019-01-21T20:00:24.029Z,0.70
2019-01-21T20:02:51.061Z,0.70
2019-01-21T20:05:18.561Z,0.70
2019-01-21T20:07:45.480Z,0.70
2019-01-21T20:10:15.538Z,0.70
2019-01-21T20:12:42.481Z,0.70
2019-01-21T20:15:10.683Z,0.70
2019-01-21T20:17:37.685Z,0.70
2019-01-21T20:20:07.105Z,0.70
2019-01-21T20:22:33.918Z,0.70
2019-01-21T20:25:00.825Z,0.70
2019-01-21T20:27:27.675Z,0.70
2019-01-21T20:29:54.586Z,0.70
2019-01-21T20:32:21.521Z,0.70
2019-01-21T20:34:48.369Z,0.70
2019-01-21T20:37:15.282Z,0.70
2019-01-21T20:39:42.192Z,0.70
2019-01-21T20:42:09.130Z,0.70
2019-01-21T20:44:37.930Z,0.70
2019-01-21T20:47:04.831Z,0.70
2019-01-21T20:49:31.746Z,0.70
2019-01-21T20:51:58.561Z,0.70
2019-01-21T20:54:25.363Z,0.70
2019-01-21T20:56:52.506Z,0.70
2019-01-21T20:59:19.403Z,0.70
2019-01-21T21:01:46.212Z,0.70
2019-01-21T21:04:13.378Z,0.70
2019-01-21T21:06:40.772Z,0.70
2019-01-21T21:09:08.494Z,0.70
2019-01-21T21:11:35.930Z,0.70
2019-01-21T21:14:03.485Z,0.70
2019-01-21T21:16:32.554Z,0.70
2019-01-21T21:18:59.975Z,0.70
2019-01-21T21:21:27.245Z,0.70
2019-01-21T21:23:54.533Z,0.70
2019-01-21T21:26:21.910Z,0.70
2019-01-21T21:28:49.318Z,0.60
2019-01-21T21:31:16.564Z,0.70
2019-01-21T21:33:43.882Z,0.70
2019-01-21T21:36:11.103Z,0.60
2019-01-21T21:38:38.429Z,0.70
2019-01-21T21:41:05.698Z,0.60
2019-01-21T21:43:32.797Z,0.60
2019-01-21T21:46:00.098Z,0.60
2019-01-21T21:48:31.688Z,0.60
2019-01-21T21:50:56.214Z,0.60
2019-01-21T21:53:23.396Z,0.60
2019-01-21T21:55:50.930Z,0.70
2019-01-21T21:58:18.251Z,0.60
2019-01-21T22:00:45.560Z,0.70
2019-01-21T22:03:12.812Z,0.70
2019-01-21T22:05:40.134Z,0.70
2019-01-21T22:08:07.434Z,0.60
2019-01-21T22:10:35.058Z,0.70
2019-01-21T22:13:03.063Z,0.70
2019-01-21T22:15:30.374Z,0.70
2019-01-21T22:17:57.706Z,0.70
2019-01-21T22:20:25.025Z,0.70
2019-01-21T22:22:52.324Z,0.70
2019-01-21T22:25:20.281Z,0.80
2019-01-21T22:27:47.601Z,0.80
2019-01-21T22:30:19.604Z,0.80
2019-01-21T22:32:46.593Z,0.80
2019-01-21T22:35:13.615Z,0.80
2019-01-21T22:37:40.638Z,0.70
2019-01-21T22:40:10.430Z,0.80
2019-01-21T22:42:37.325Z,0.80
2019-01-21T22:45:05.286Z,0.80
2019-01-21T22:47:32.225Z,0.70
2019-01-21T22:49:59.169Z,0.70
2019-01-21T22:52:26.289Z,0.70
2019-01-21T22:54:53.162Z,0.80
2019-01-21T22:57:19.977Z,0.80
2019-01-21T22:59:46.886Z,0.80
2019-01-21T23:02:13.829Z,0.70
2019-01-21T23:04:40.837Z,0.70
2019-01-21T23:07:07.865Z,0.70
2019-01-21T23:09:34.862Z,0.70
2019-01-21T23:12:01.982Z,0.70
2019-01-21T23:14:29.190Z,0.80
2019-01-21T23:16:56.230Z,0.80
2019-01-21T23:19:23.127Z,0.70
2019-01-21T23:21:50.044Z,0.70
2019-01-21T23:24:17.211Z,0.70
2019-01-21T23:26:44.114Z,0.80
2019-01-21T23:29:11.010Z,0.80
2019-01-21T23:31:38.038Z,0.70
2019-01-21T23:34:05.051Z,0.80
2019-01-21T23:36:32.050Z,0.80
2019-01-21T23:38:59.380Z,0.80
2019-01-21T23:41:26.174Z,0.80
2019-01-21T23:43:53.321Z,0.70
2019-01-21T23:46:20.187Z,0.70
2019-01-21T23:48:48.026Z,0.70
2019-01-21T23:51:15.169Z,0.70
2019-01-21T23:53:42.238Z,0.70
2019-01-21T23:56:09.251Z,0.70
2019-01-21T23:58:36.082Z,0.70
